Terminal Aerodrome Forecast
Issued by NWS

Home | Current Version | Previous Version | Text Only | Print | Product List | Glossary On
Versions: 1 2 3 4 5 6 7 8 9 10 11 12 13
000
FTUS45 KVEF 290500
TAFEED
TAF
KEED 290528Z 2906/3006 25005KT P6SM SKC
     FM291800 VRB05KT P6SM SKC
     FM300200 24007KT P6SM FEW250=

USA.gov is the U.S. government's official web portal to all federal, state and local government web resources and services.